Little Diomede, Alaska
Current Conditions -  °F | °C
As of 9:58 AM on Thursday 27 Nov 2014 (Local Time) from PATE Reporting Station
Few Clouds Few Clouds  
Wind Chill:   Ceiling: Unl
Heat Index: 23°   Visibility: 10mi
Dew Point: 21°   Wind: 18mph
Humidity: 92%   Direction: 100°E
Pressure: 30"   Gusts: NA
Location:  65.1617°N, 164.975°W
Report Text: PATE 271858Z AUTO 10016KT 10SM FEW049 M05/M06 A3000 RMK AO2 SLP172 T10501061 FZRANO
Loading
Personal Weather Stations






























Interactive Weather Map New forecast layout! Learn more

10-Day Weather Forecast

Advertisements
Track Severe Weather on mobile